sensor_id;sensor_type;location;lat;lon;timestamp;P1;durP1;ratioP1;P2;durP2;ratioP2
14994;SDS011;7593;49.006;8.372;2023-05-10T00:00:37;2.75;;;1.35;;
14994;SDS011;7593;49.006;8.372;2023-05-10T00:03:04;3.88;;;1.50;;
14994;SDS011;7593;49.006;8.372;2023-05-10T00:05:31;2.13;;;1.50;;
14994;SDS011;7593;49.006;8.372;2023-05-10T00:07:57;2.15;;;1.20;;
14994;SDS011;7593;49.006;8.372;2023-05-10T00:10:24;3.47;;;1.60;;
14994;SDS011;7593;49.006;8.372;2023-05-10T00:12:51;1.73;;;1.50;;
14994;SDS011;7593;49.006;8.372;2023-05-10T00:15:19;1.73;;;1.30;;
14994;SDS011;7593;49.006;8.372;2023-05-10T00:17:46;3.22;;;1.30;;
14994;SDS011;7593;49.006;8.372;2023-05-10T00:20:13;1.40;;;1.27;;
14994;SDS011;7593;49.006;8.372;2023-05-10T00:22:40;1.85;;;1.30;;
14994;SDS011;7593;49.006;8.372;2023-05-10T00:25:07;2.38;;;1.50;;
14994;SDS011;7593;49.006;8.372;2023-05-10T00:27:35;1.88;;;1.30;;
14994;SDS011;7593;49.006;8.372;2023-05-10T00:30:01;2.00;;;1.55;;
14994;SDS011;7593;49.006;8.372;2023-05-10T00:32:30;2.38;;;1.27;;
14994;SDS011;7593;49.006;8.372;2023-05-10T00:34:56;1.45;;;1.35;;
14994;SDS011;7593;49.006;8.372;2023-05-10T00:37:23;2.80;;;1.30;;
14994;SDS011;7593;49.006;8.372;2023-05-10T00:39:50;2.28;;;1.45;;
14994;SDS011;7593;49.006;8.372;2023-05-10T00:42:17;2.00;;;1.35;;
14994;SDS011;7593;49.006;8.372;2023-05-10T00:44:44;3.85;;;1.40;;
14994;SDS011;7593;49.006;8.372;2023-05-10T00:47:11;3.38;;;1.38;;
14994;SDS011;7593;49.006;8.372;2023-05-10T00:49:39;1.40;;;1.30;;
14994;SDS011;7593;49.006;8.372;2023-05-10T00:52:07;2.05;;;1.50;;
14994;SDS011;7593;49.006;8.372;2023-05-10T00:54:34;2.13;;;1.50;;
14994;SDS011;7593;49.006;8.372;2023-05-10T00:57:01;2.20;;;1.63;;
14994;SDS011;7593;49.006;8.372;2023-05-10T00:59:28;2.13;;;1.40;;
14994;SDS011;7593;49.006;8.372;2023-05-10T01:01:55;1.58;;;1.35;;
14994;SDS011;7593;49.006;8.372;2023-05-10T01:04:42;2.67;;;1.48;;
14994;SDS011;7593;49.006;8.372;2023-05-10T01:07:09;2.20;;;1.60;;
14994;SDS011;7593;49.006;8.372;2023-05-10T01:09:36;1.75;;;1.60;;
14994;SDS011;7593;49.006;8.372;2023-05-10T01:12:03;2.67;;;1.67;;
14994;SDS011;7593;49.006;8.372;2023-05-10T01:14:32;1.88;;;1.70;;
14994;SDS011;7593;49.006;8.372;2023-05-10T01:17:01;1.95;;;1.65;;
14994;SDS011;7593;49.006;8.372;2023-05-10T01:19:29;1.70;;;1.60;;
14994;SDS011;7593;49.006;8.372;2023-05-10T01:22:00;2.10;;;1.90;;
14994;SDS011;7593;49.006;8.372;2023-05-10T01:24:58;3.17;;;1.95;;
14994;SDS011;7593;49.006;8.372;2023-05-10T01:27:51;2.50;;;1.75;;
14994;SDS011;7593;49.006;8.372;2023-05-10T01:30:40;3.80;;;2.15;;
14994;SDS011;7593;49.006;8.372;2023-05-10T01:33:31;2.15;;;1.95;;
14994;SDS011;7593;49.006;8.372;2023-05-10T01:36:03;2.78;;;1.90;;
14994;SDS011;7593;49.006;8.372;2023-05-10T01:38:38;2.25;;;1.98;;
14994;SDS011;7593;49.006;8.372;2023-05-10T01:41:10;2.90;;;2.30;;
14994;SDS011;7593;49.006;8.372;2023-05-10T01:43:42;3.40;;;2.13;;
14994;SDS011;7593;49.006;8.372;2023-05-10T01:46:15;3.25;;;2.28;;
14994;SDS011;7593;49.006;8.372;2023-05-10T01:48:48;3.10;;;2.58;;
14994;SDS011;7593;49.006;8.372;2023-05-10T01:51:19;2.47;;;2.28;;
14994;SDS011;7593;49.006;8.372;2023-05-10T01:53:50;3.00;;;2.60;;
14994;SDS011;7593;49.006;8.372;2023-05-10T01:56:23;3.15;;;2.75;;
14994;SDS011;7593;49.006;8.372;2023-05-10T01:58:51;4.05;;;2.53;;
14994;SDS011;7593;49.006;8.372;2023-05-10T02:01:19;2.70;;;2.50;;
14994;SDS011;7593;49.006;8.372;2023-05-10T02:03:50;3.97;;;2.78;;
14994;SDS011;7593;49.006;8.372;2023-05-10T02:06:18;4.13;;;2.78;;
14994;SDS011;7593;49.006;8.372;2023-05-10T02:08:46;4.85;;;2.90;;
14994;SDS011;7593;49.006;8.372;2023-05-10T02:11:15;4.25;;;3.03;;
14994;SDS011;7593;49.006;8.372;2023-05-10T02:13:46;4.28;;;3.05;;
14994;SDS011;7593;49.006;8.372;2023-05-10T02:16:15;3.75;;;3.45;;
14994;SDS011;7593;49.006;8.372;2023-05-10T02:18:44;4.30;;;3.42;;
14994;SDS011;7593;49.006;8.372;2023-05-10T02:21:13;3.67;;;3.38;;
14994;SDS011;7593;49.006;8.372;2023-05-10T02:23:41;5.28;;;3.70;;
14994;SDS011;7593;49.006;8.372;2023-05-10T02:26:09;4.18;;;3.67;;
14994;SDS011;7593;49.006;8.372;2023-05-10T02:28:38;4.03;;;3.70;;
14994;SDS011;7593;49.006;8.372;2023-05-10T02:31:07;4.40;;;3.80;;
14994;SDS011;7593;49.006;8.372;2023-05-10T02:33:36;4.22;;;3.83;;
14994;SDS011;7593;49.006;8.372;2023-05-10T02:36:05;5.38;;;3.55;;
14994;SDS011;7593;49.006;8.372;2023-05-10T02:38:36;5.40;;;4.00;;
14994;SDS011;7593;49.006;8.372;2023-05-10T02:41:03;4.30;;;3.90;;
14994;SDS011;7593;49.006;8.372;2023-05-10T02:43:32;10.65;;;4.47;;
14994;SDS011;7593;49.006;8.372;2023-05-10T02:46:00;5.13;;;4.20;;
14994;SDS011;7593;49.006;8.372;2023-05-10T02:48:28;4.40;;;4.00;;
14994;SDS011;7593;49.006;8.372;2023-05-10T02:50:56;4.78;;;4.38;;
14994;SDS011;7593;49.006;8.372;2023-05-10T02:53:30;5.07;;;4.57;;
14994;SDS011;7593;49.006;8.372;2023-05-10T02:56:01;5.22;;;4.68;;
14994;SDS011;7593;49.006;8.372;2023-05-10T02:58:32;5.18;;;4.78;;
14994;SDS011;7593;49.006;8.372;2023-05-10T03:00:59;5.30;;;4.80;;
14994;SDS011;7593;49.006;8.372;2023-05-10T03:03:26;5.18;;;4.78;;
14994;SDS011;7593;49.006;8.372;2023-05-10T03:05:53;5.05;;;4.65;;
14994;SDS011;7593;49.006;8.372;2023-05-10T03:08:21;6.55;;;4.68;;
14994;SDS011;7593;49.006;8.372;2023-05-10T03:10:51;5.35;;;4.95;;
14994;SDS011;7593;49.006;8.372;2023-05-10T03:13:31;5.60;;;5.07;;
14994;SDS011;7593;49.006;8.372;2023-05-10T03:16:06;5.10;;;4.60;;
14994;SDS011;7593;49.006;8.372;2023-05-10T03:18:37;5.72;;;5.13;;
14994;SDS011;7593;49.006;8.372;2023-05-10T03:21:10;5.28;;;4.78;;
14994;SDS011;7593;49.006;8.372;2023-05-10T03:23:40;6.15;;;5.30;;
14994;SDS011;7593;49.006;8.372;2023-05-10T03:26:09;5.57;;;5.10;;
14994;SDS011;7593;49.006;8.372;2023-05-10T03:28:38;5.70;;;5.20;;
14994;SDS011;7593;49.006;8.372;2023-05-10T03:31:06;7.30;;;4.90;;
14994;SDS011;7593;49.006;8.372;2023-05-10T03:33:33;6.60;;;5.65;;
14994;SDS011;7593;49.006;8.372;2023-05-10T03:36:00;6.35;;;5.85;;
14994;SDS011;7593;49.006;8.372;2023-05-10T03:38:27;8.00;;;7.30;;
14994;SDS011;7593;49.006;8.372;2023-05-10T03:40:54;5.80;;;5.20;;
14994;SDS011;7593;49.006;8.372;2023-05-10T03:43:21;5.75;;;5.25;;
14994;SDS011;7593;49.006;8.372;2023-05-10T03:45:49;6.70;;;5.28;;
14994;SDS011;7593;49.006;8.372;2023-05-10T03:48:16;6.25;;;5.65;;
14994;SDS011;7593;49.006;8.372;2023-05-10T03:50:43;6.15;;;5.07;;
14994;SDS011;7593;49.006;8.372;2023-05-10T03:53:10;5.47;;;4.57;;
14994;SDS011;7593;49.006;8.372;2023-05-10T03:55:38;5.80;;;5.10;;
14994;SDS011;7593;49.006;8.372;2023-05-10T03:58:05;4.68;;;4.28;;
14994;SDS011;7593;49.006;8.372;2023-05-10T04:00:32;5.18;;;4.70;;
14994;SDS011;7593;49.006;8.372;2023-05-10T04:03:01;5.00;;;4.20;;
14994;SDS011;7593;49.006;8.372;2023-05-10T04:05:28;6.25;;;4.40;;
14994;SDS011;7593;49.006;8.372;2023-05-10T04:07:55;4.32;;;3.92;;
14994;SDS011;7593;49.006;8.372;2023-05-10T04:10:22;4.32;;;4.00;;
14994;SDS011;7593;49.006;8.372;2023-05-10T04:12:49;4.72;;;4.32;;
14994;SDS011;7593;49.006;8.372;2023-05-10T04:15:16;4.32;;;3.97;;
14994;SDS011;7593;49.006;8.372;2023-05-10T04:17:43;5.15;;;4.20;;
14994;SDS011;7593;49.006;8.372;2023-05-10T04:20:11;8.50;;;3.80;;
14994;SDS011;7593;49.006;8.372;2023-05-10T04:22:39;4.80;;;3.70;;
14994;SDS011;7593;49.006;8.372;2023-05-10T04:25:06;5.20;;;3.67;;
14994;SDS011;7593;49.006;8.372;2023-05-10T04:27:33;4.68;;;3.35;;
14994;SDS011;7593;49.006;8.372;2023-05-10T04:30:00;4.30;;;3.60;;
14994;SDS011;7593;49.006;8.372;2023-05-10T04:32:27;4.18;;;3.70;;
14994;SDS011;7593;49.006;8.372;2023-05-10T04:34:54;3.63;;;3.05;;
14994;SDS011;7593;49.006;8.372;2023-05-10T04:37:22;4.32;;;3.60;;
14994;SDS011;7593;49.006;8.372;2023-05-10T04:39:49;4.05;;;3.65;;
14994;SDS011;7593;49.006;8.372;2023-05-10T04:42:16;3.88;;;3.33;;
14994;SDS011;7593;49.006;8.372;2023-05-10T04:44:42;3.83;;;3.30;;
14994;SDS011;7593;49.006;8.372;2023-05-10T04:47:09;3.45;;;3.15;;
14994;SDS011;7593;49.006;8.372;2023-05-10T04:49:38;4.32;;;3.50;;
14994;SDS011;7593;49.006;8.372;2023-05-10T04:52:04;3.83;;;3.53;;
14994;SDS011;7593;49.006;8.372;2023-05-10T04:54:33;5.55;;;3.55;;
14994;SDS011;7593;49.006;8.372;2023-05-10T04:57:00;3.80;;;3.50;;
14994;SDS011;7593;49.006;8.372;2023-05-10T04:59:26;3.78;;;3.45;;
14994;SDS011;7593;49.006;8.372;2023-05-10T05:01:53;6.15;;;4.10;;
14994;SDS011;7593;49.006;8.372;2023-05-10T05:04:20;4.72;;;3.72;;
14994;SDS011;7593;49.006;8.372;2023-05-10T05:06:48;4.40;;;4.00;;
14994;SDS011;7593;49.006;8.372;2023-05-10T05:09:15;4.43;;;4.05;;
14994;SDS011;7593;49.006;8.372;2023-05-10T05:11:43;4.63;;;4.20;;
14994;SDS011;7593;49.006;8.372;2023-05-10T05:14:10;3.83;;;3.53;;
14994;SDS011;7593;49.006;8.372;2023-05-10T05:16:36;4.35;;;3.97;;
14994;SDS011;7593;49.006;8.372;2023-05-10T05:19:03;5.30;;;3.95;;
14994;SDS011;7593;49.006;8.372;2023-05-10T05:21:30;4.00;;;3.70;;
14994;SDS011;7593;49.006;8.372;2023-05-10T05:23:57;5.47;;;3.92;;
14994;SDS011;7593;49.006;8.372;2023-05-10T05:26:24;4.50;;;3.65;;
14994;SDS011;7593;49.006;8.372;2023-05-10T05:28:53;6.70;;;5.72;;
14994;SDS011;7593;49.006;8.372;2023-05-10T05:31:20;4.18;;;3.78;;
14994;SDS011;7593;49.006;8.372;2023-05-10T05:33:47;4.60;;;3.35;;
14994;SDS011;7593;49.006;8.372;2023-05-10T05:36:14;5.35;;;3.65;;
14994;SDS011;7593;49.006;8.372;2023-05-10T05:38:40;4.28;;;3.38;;
14994;SDS011;7593;49.006;8.372;2023-05-10T05:41:08;3.35;;;3.05;;
14994;SDS011;7593;49.006;8.372;2023-05-10T05:43:34;4.28;;;3.03;;
14994;SDS011;7593;49.006;8.372;2023-05-10T05:46:02;4.55;;;3.63;;
14994;SDS011;7593;49.006;8.372;2023-05-10T05:48:29;3.00;;;2.80;;
14994;SDS011;7593;49.006;8.372;2023-05-10T05:50:57;3.78;;;2.70;;
14994;SDS011;7593;49.006;8.372;2023-05-10T05:53:24;2.75;;;2.55;;
14994;SDS011;7593;49.006;8.372;2023-05-10T05:55:51;3.17;;;2.58;;
14994;SDS011;7593;49.006;8.372;2023-05-10T05:58:19;3.45;;;2.70;;
14994;SDS011;7593;49.006;8.372;2023-05-10T06:00:46;2.83;;;2.53;;
14994;SDS011;7593;49.006;8.372;2023-05-10T06:03:14;3.13;;;2.53;;
14994;SDS011;7593;49.006;8.372;2023-05-10T06:05:41;2.50;;;2.30;;
14994;SDS011;7593;49.006;8.372;2023-05-10T06:08:08;2.97;;;2.10;;
14994;SDS011;7593;49.006;8.372;2023-05-10T06:10:34;3.00;;;2.00;;
14994;SDS011;7593;49.006;8.372;2023-05-10T06:13:01;2.70;;;1.90;;
14994;SDS011;7593;49.006;8.372;2023-05-10T06:15:28;2.63;;;1.90;;
14994;SDS011;7593;49.006;8.372;2023-05-10T06:17:55;2.95;;;1.88;;
14994;SDS011;7593;49.006;8.372;2023-05-10T06:20:23;3.15;;;1.92;;
14994;SDS011;7593;49.006;8.372;2023-05-10T06:22:50;3.60;;;1.90;;
14994;SDS011;7593;49.006;8.372;2023-05-10T06:25:18;3.85;;;1.88;;
14994;SDS011;7593;49.006;8.372;2023-05-10T06:27:45;1.75;;;1.55;;
14994;SDS011;7593;49.006;8.372;2023-05-10T06:30:12;3.58;;;1.60;;
14994;SDS011;7593;49.006;8.372;2023-05-10T06:32:40;3.72;;;1.90;;
14994;SDS011;7593;49.006;8.372;2023-05-10T06:35:09;4.65;;;1.98;;
14994;SDS011;7593;49.006;8.372;2023-05-10T06:37:37;2.10;;;1.77;;
14994;SDS011;7593;49.006;8.372;2023-05-10T06:40:05;2.30;;;2.10;;
14994;SDS011;7593;49.006;8.372;2023-05-10T06:42:32;2.42;;;2.03;;
14994;SDS011;7593;49.006;8.372;2023-05-10T06:44:59;2.65;;;1.73;;
14994;SDS011;7593;49.006;8.372;2023-05-10T06:47:26;1.63;;;1.52;;
14994;SDS011;7593;49.006;8.372;2023-05-10T06:49:53;1.88;;;1.67;;
14994;SDS011;7593;49.006;8.372;2023-05-10T06:52:20;2.10;;;1.73;;
14994;SDS011;7593;49.006;8.372;2023-05-10T06:54:51;3.88;;;1.60;;
14994;SDS011;7593;49.006;8.372;2023-05-10T06:57:18;3.05;;;1.60;;
14994;SDS011;7593;49.006;8.372;2023-05-10T06:59:45;1.60;;;1.40;;
14994;SDS011;7593;49.006;8.372;2023-05-10T07:02:12;2.17;;;1.48;;
14994;SDS011;7593;49.006;8.372;2023-05-10T07:04:39;1.80;;;1.50;;
14994;SDS011;7593;49.006;8.372;2023-05-10T07:07:06;2.15;;;1.88;;
14994;SDS011;7593;49.006;8.372;2023-05-10T07:09:33;3.05;;;1.58;;
14994;SDS011;7593;49.006;8.372;2023-05-10T07:12:01;3.28;;;1.50;;
14994;SDS011;7593;49.006;8.372;2023-05-10T07:14:29;2.35;;;1.50;;
14994;SDS011;7593;49.006;8.372;2023-05-10T07:16:55;3.88;;;1.70;;
14994;SDS011;7593;49.006;8.372;2023-05-10T07:19:22;2.75;;;1.60;;
14994;SDS011;7593;49.006;8.372;2023-05-10T07:21:49;3.00;;;1.30;;
14994;SDS011;7593;49.006;8.372;2023-05-10T07:24:16;1.52;;;1.35;;
14994;SDS011;7593;49.006;8.372;2023-05-10T07:26:43;4.00;;;1.42;;
14994;SDS011;7593;49.006;8.372;2023-05-10T07:29:11;3.47;;;1.20;;
14994;SDS011;7593;49.006;8.372;2023-05-10T07:31:38;1.30;;;1.00;;
14994;SDS011;7593;49.006;8.372;2023-05-10T07:34:06;2.75;;;1.10;;
14994;SDS011;7593;49.006;8.372;2023-05-10T07:36:33;1.60;;;1.20;;
14994;SDS011;7593;49.006;8.372;2023-05-10T07:39:00;1.33;;;1.17;;
14994;SDS011;7593;49.006;8.372;2023-05-10T07:41:28;1.02;;;0.88;;
14994;SDS011;7593;49.006;8.372;2023-05-10T07:43:54;1.40;;;1.30;;
14994;SDS011;7593;49.006;8.372;2023-05-10T07:46:23;4.30;;;1.20;;
14994;SDS011;7593;49.006;8.372;2023-05-10T07:48:49;1.83;;;1.15;;
14994;SDS011;7593;49.006;8.372;2023-05-10T07:51:16;1.15;;;1.00;;
14994;SDS011;7593;49.006;8.372;2023-05-10T07:53:43;3.03;;;1.15;;
14994;SDS011;7593;49.006;8.372;2023-05-10T07:56:20;1.10;;;1.00;;
14994;SDS011;7593;49.006;8.372;2023-05-10T07:58:49;1.50;;;1.00;;
14994;SDS011;7593;49.006;8.372;2023-05-10T08:01:17;1.10;;;1.00;;
14994;SDS011;7593;49.006;8.372;2023-05-10T08:03:45;2.35;;;1.23;;
14994;SDS011;7593;49.006;8.372;2023-05-10T08:06:11;1.23;;;1.13;;
14994;SDS011;7593;49.006;8.372;2023-05-10T08:08:38;1.90;;;0.95;;
14994;SDS011;7593;49.006;8.372;2023-05-10T08:11:05;2.33;;;1.00;;
14994;SDS011;7593;49.006;8.372;2023-05-10T08:13:32;2.03;;;1.48;;
14994;SDS011;7593;49.006;8.372;2023-05-10T08:15:59;1.63;;;1.00;;
14994;SDS011;7593;49.006;8.372;2023-05-10T08:18:25;1.40;;;1.05;;
14994;SDS011;7593;49.006;8.372;2023-05-10T08:20:53;2.30;;;1.10;;
14994;SDS011;7593;49.006;8.372;2023-05-10T08:23:20;1.45;;;1.02;;
14994;SDS011;7593;49.006;8.372;2023-05-10T08:25:47;1.90;;;1.20;;
14994;SDS011;7593;49.006;8.372;2023-05-10T08:28:14;1.40;;;1.20;;
14994;SDS011;7593;49.006;8.372;2023-05-10T08:30:41;0.98;;;0.85;;
14994;SDS011;7593;49.006;8.372;2023-05-10T08:33:07;4.97;;;1.20;;
14994;SDS011;7593;49.006;8.372;2023-05-10T08:35:34;2.15;;;1.00;;
14994;SDS011;7593;49.006;8.372;2023-05-10T08:38:02;1.30;;;0.90;;
14994;SDS011;7593;49.006;8.372;2023-05-10T08:40:30;2.08;;;1.00;;
14994;SDS011;7593;49.006;8.372;2023-05-10T08:42:58;3.17;;;1.00;;
14994;SDS011;7593;49.006;8.372;2023-05-10T08:45:41;1.60;;;1.00;;
14994;SDS011;7593;49.006;8.372;2023-05-10T08:48:12;2.15;;;0.90;;
14994;SDS011;7593;49.006;8.372;2023-05-10T08:50:40;3.60;;;1.33;;
14994;SDS011;7593;49.006;8.372;2023-05-10T08:53:10;3.22;;;1.10;;
14994;SDS011;7593;49.006;8.372;2023-05-10T08:55:38;1.00;;;0.90;;
14994;SDS011;7593;49.006;8.372;2023-05-10T08:58:07;1.10;;;1.00;;
14994;SDS011;7593;49.006;8.372;2023-05-10T09:00:35;1.00;;;0.90;;
14994;SDS011;7593;49.006;8.372;2023-05-10T09:03:07;1.35;;;1.10;;
14994;SDS011;7593;49.006;8.372;2023-05-10T09:05:40;2.65;;;0.95;;
14994;SDS011;7593;49.006;8.372;2023-05-10T09:08:07;2.45;;;1.10;;
14994;SDS011;7593;49.006;8.372;2023-05-10T09:10:37;1.48;;;1.02;;
14994;SDS011;7593;49.006;8.372;2023-05-10T09:13:05;2.45;;;0.90;;
14994;SDS011;7593;49.006;8.372;2023-05-10T09:15:33;0.95;;;0.93;;
14994;SDS011;7593;49.006;8.372;2023-05-10T09:18:00;1.45;;;0.95;;
14994;SDS011;7593;49.006;8.372;2023-05-10T09:20:27;1.08;;;0.90;;
14994;SDS011;7593;49.006;8.372;2023-05-10T09:22:54;1.83;;;1.02;;
14994;SDS011;7593;49.006;8.372;2023-05-10T09:25:23;2.10;;;1.02;;
14994;SDS011;7593;49.006;8.372;2023-05-10T09:27:50;1.30;;;1.00;;
14994;SDS011;7593;49.006;8.372;2023-05-10T09:30:23;1.00;;;0.88;;
14994;SDS011;7593;49.006;8.372;2023-05-10T09:32:51;1.55;;;0.75;;
14994;SDS011;7593;49.006;8.372;2023-05-10T09:35:19;0.90;;;0.90;;
14994;SDS011;7593;49.006;8.372;2023-05-10T09:37:48;1.23;;;1.00;;
14994;SDS011;7593;49.006;8.372;2023-05-10T09:40:16;1.95;;;0.90;;
14994;SDS011;7593;49.006;8.372;2023-05-10T09:42:52;1.25;;;0.98;;
14994;SDS011;7593;49.006;8.372;2023-05-10T09:45:20;1.77;;;1.25;;
14994;SDS011;7593;49.006;8.372;2023-05-10T09:47:47;3.38;;;1.10;;
14994;SDS011;7593;49.006;8.372;2023-05-10T09:50:14;3.67;;;1.00;;
14994;SDS011;7593;49.006;8.372;2023-05-10T09:52:48;1.05;;;0.80;;
14994;SDS011;7593;49.006;8.372;2023-05-10T09:55:17;1.65;;;1.00;;
14994;SDS011;7593;49.006;8.372;2023-05-10T09:57:45;1.98;;;1.00;;
14994;SDS011;7593;49.006;8.372;2023-05-10T10:00:17;4.10;;;1.15;;
14994;SDS011;7593;49.006;8.372;2023-05-10T10:02:45;1.90;;;1.20;;
14994;SDS011;7593;49.006;8.372;2023-05-10T10:05:14;2.63;;;1.27;;
14994;SDS011;7593;49.006;8.372;2023-05-10T10:07:41;1.85;;;1.10;;
14994;SDS011;7593;49.006;8.372;2023-05-10T10:10:08;3.78;;;2.30;;
14994;SDS011;7593;49.006;8.372;2023-05-10T10:15:06;1.77;;;1.30;;
14994;SDS011;7593;49.006;8.372;2023-05-10T10:17:36;2.95;;;1.30;;
14994;SDS011;7593;49.006;8.372;2023-05-10T10:20:04;1.23;;;1.00;;
14994;SDS011;7593;49.006;8.372;2023-05-10T10:22:32;2.08;;;1.35;;
14994;SDS011;7593;49.006;8.372;2023-05-10T10:24:59;2.88;;;1.40;;
14994;SDS011;7593;49.006;8.372;2023-05-10T10:27:27;1.77;;;1.08;;
14994;SDS011;7593;49.006;8.372;2023-05-10T10:30:02;3.58;;;1.33;;
14994;SDS011;7593;49.006;8.372;2023-05-10T10:33:13;3.38;;;1.13;;
14994;SDS011;7593;49.006;8.372;2023-05-10T10:36:00;3.03;;;1.60;;
14994;SDS011;7593;49.006;8.372;2023-05-10T10:38:35;3.38;;;1.60;;
14994;SDS011;7593;49.006;8.372;2023-05-10T10:41:08;2.10;;;1.50;;
14994;SDS011;7593;49.006;8.372;2023-05-10T10:43:37;2.70;;;1.90;;
14994;SDS011;7593;49.006;8.372;2023-05-10T10:46:10;1.95;;;1.38;;
14994;SDS011;7593;49.006;8.372;2023-05-10T10:48:40;2.88;;;1.90;;
14994;SDS011;7593;49.006;8.372;2023-05-10T10:51:07;5.80;;;2.17;;
14994;SDS011;7593;49.006;8.372;2023-05-10T10:53:34;2.97;;;1.77;;
14994;SDS011;7593;49.006;8.372;2023-05-10T10:56:07;4.63;;;2.00;;
14994;SDS011;7593;49.006;8.372;2023-05-10T10:58:35;2.70;;;2.03;;
14994;SDS011;7593;49.006;8.372;2023-05-10T11:01:10;3.22;;;1.90;;
14994;SDS011;7593;49.006;8.372;2023-05-10T11:06:44;2.97;;;1.83;;
14994;SDS011;7593;49.006;8.372;2023-05-10T11:09:11;3.00;;;1.80;;
14994;SDS011;7593;49.006;8.372;2023-05-10T11:11:48;4.65;;;1.60;;
14994;SDS011;7593;49.006;8.372;2023-05-10T11:14:19;4.38;;;1.90;;
14994;SDS011;7593;49.006;8.372;2023-05-10T11:16:47;3.55;;;1.70;;
14994;SDS011;7593;49.006;8.372;2023-05-10T11:19:16;2.42;;;1.60;;
14994;SDS011;7593;49.006;8.372;2023-05-10T11:21:44;1.60;;;1.30;;
14994;SDS011;7593;49.006;8.372;2023-05-10T11:24:13;3.53;;;1.60;;
14994;SDS011;7593;49.006;8.372;2023-05-10T11:26:40;3.20;;;1.63;;
14994;SDS011;7593;49.006;8.372;2023-05-10T11:29:08;2.90;;;1.45;;
14994;SDS011;7593;49.006;8.372;2023-05-10T11:31:35;2.85;;;1.50;;
14994;SDS011;7593;49.006;8.372;2023-05-10T11:34:08;3.35;;;1.33;;
14994;SDS011;7593;49.006;8.372;2023-05-10T11:36:37;4.32;;;1.50;;
14994;SDS011;7593;49.006;8.372;2023-05-10T11:39:04;2.65;;;1.38;;
14994;SDS011;7593;49.006;8.372;2023-05-10T11:41:31;3.20;;;1.50;;
14994;SDS011;7593;49.006;8.372;2023-05-10T11:43:58;2.20;;;1.40;;
14994;SDS011;7593;49.006;8.372;2023-05-10T11:46:25;1.73;;;1.27;;
14994;SDS011;7593;49.006;8.372;2023-05-10T11:48:59;2.88;;;1.38;;
14994;SDS011;7593;49.006;8.372;2023-05-10T11:51:29;2.05;;;1.30;;
14994;SDS011;7593;49.006;8.372;2023-05-10T11:54:05;2.35;;;1.23;;
14994;SDS011;7593;49.006;8.372;2023-05-10T11:56:33;3.35;;;1.38;;
14994;SDS011;7593;49.006;8.372;2023-05-10T11:58:59;3.25;;;1.10;;
14994;SDS011;7593;49.006;8.372;2023-05-10T12:01:27;2.22;;;1.15;;
14994;SDS011;7593;49.006;8.372;2023-05-10T12:03:55;2.03;;;1.15;;
14994;SDS011;7593;49.006;8.372;2023-05-10T12:06:25;3.83;;;1.40;;
14994;SDS011;7593;49.006;8.372;2023-05-10T12:08:53;1.48;;;1.10;;
14994;SDS011;7593;49.006;8.372;2023-05-10T12:11:24;5.25;;;1.30;;
14994;SDS011;7593;49.006;8.372;2023-05-10T12:13:52;2.67;;;1.45;;
14994;SDS011;7593;49.006;8.372;2023-05-10T12:16:19;3.97;;;1.50;;
14994;SDS011;7593;49.006;8.372;2023-05-10T12:18:48;2.05;;;1.10;;
14994;SDS011;7593;49.006;8.372;2023-05-10T12:21:16;1.73;;;1.10;;
14994;SDS011;7593;49.006;8.372;2023-05-10T12:23:45;1.55;;;1.10;;
14994;SDS011;7593;49.006;8.372;2023-05-10T12:26:12;1.48;;;1.30;;
14994;SDS011;7593;49.006;8.372;2023-05-10T12:28:40;1.60;;;1.25;;
14994;SDS011;7593;49.006;8.372;2023-05-10T12:31:07;1.95;;;1.25;;
14994;SDS011;7593;49.006;8.372;2023-05-10T12:33:37;1.27;;;1.13;;
14994;SDS011;7593;49.006;8.372;2023-05-10T12:36:08;2.13;;;1.27;;
14994;SDS011;7593;49.006;8.372;2023-05-10T12:38:36;2.10;;;1.23;;
14994;SDS011;7593;49.006;8.372;2023-05-10T12:41:04;1.75;;;1.30;;
14994;SDS011;7593;49.006;8.372;2023-05-10T12:43:32;3.38;;;1.55;;
14994;SDS011;7593;49.006;8.372;2023-05-10T12:46:05;1.50;;;1.20;;
14994;SDS011;7593;49.006;8.372;2023-05-10T12:48:33;2.53;;;1.50;;
14994;SDS011;7593;49.006;8.372;2023-05-10T12:51:00;3.22;;;1.67;;
14994;SDS011;7593;49.006;8.372;2023-05-10T12:53:28;2.67;;;1.20;;
14994;SDS011;7593;49.006;8.372;2023-05-10T12:55:55;2.75;;;1.30;;
14994;SDS011;7593;49.006;8.372;2023-05-10T12:58:22;2.45;;;1.20;;
14994;SDS011;7593;49.006;8.372;2023-05-10T13:00:49;1.20;;;1.10;;
14994;SDS011;7593;49.006;8.372;2023-05-10T13:03:18;2.72;;;1.40;;
14994;SDS011;7593;49.006;8.372;2023-05-10T13:05:45;2.30;;;1.42;;
14994;SDS011;7593;49.006;8.372;2023-05-10T13:14:43;2.45;;;1.40;;
14994;SDS011;7593;49.006;8.372;2023-05-10T13:17:10;3.03;;;1.30;;
14994;SDS011;7593;49.006;8.372;2023-05-10T13:19:38;2.15;;;1.20;;
14994;SDS011;7593;49.006;8.372;2023-05-10T13:22:05;1.67;;;1.38;;
14994;SDS011;7593;49.006;8.372;2023-05-10T13:24:31;3.15;;;1.52;;
14994;SDS011;7593;49.006;8.372;2023-05-10T13:26:58;2.30;;;1.17;;
14994;SDS011;7593;49.006;8.372;2023-05-10T13:29:25;2.38;;;1.20;;
14994;SDS011;7593;49.006;8.372;2023-05-10T13:31:52;1.17;;;0.98;;
14994;SDS011;7593;49.006;8.372;2023-05-10T13:34:19;1.42;;;1.00;;
14994;SDS011;7593;49.006;8.372;2023-05-10T13:36:47;2.38;;;1.23;;
14994;SDS011;7593;49.006;8.372;2023-05-10T13:39:14;2.15;;;1.00;;
14994;SDS011;7593;49.006;8.372;2023-05-10T13:41:41;1.67;;;1.15;;
14994;SDS011;7593;49.006;8.372;2023-05-10T13:44:08;3.40;;;1.40;;
14994;SDS011;7593;49.006;8.372;2023-05-10T13:46:36;2.50;;;1.60;;
14994;SDS011;7593;49.006;8.372;2023-05-10T13:49:03;1.80;;;1.50;;
14994;SDS011;7593;49.006;8.372;2023-05-10T13:51:30;2.60;;;1.40;;
14994;SDS011;7593;49.006;8.372;2023-05-10T13:53:59;1.33;;;1.23;;
14994;SDS011;7593;49.006;8.372;2023-05-10T13:56:25;2.03;;;1.30;;
14994;SDS011;7593;49.006;8.372;2023-05-10T13:58:52;1.90;;;1.30;;
14994;SDS011;7593;49.006;8.372;2023-05-10T14:01:19;1.70;;;1.20;;
14994;SDS011;7593;49.006;8.372;2023-05-10T14:03:46;2.45;;;1.40;;
14994;SDS011;7593;49.006;8.372;2023-05-10T14:06:13;3.92;;;1.23;;
14994;SDS011;7593;49.006;8.372;2023-05-10T14:08:39;2.33;;;1.20;;
14994;SDS011;7593;49.006;8.372;2023-05-10T14:11:08;2.45;;;1.30;;
14994;SDS011;7593;49.006;8.372;2023-05-10T14:13:35;1.30;;;1.20;;
14994;SDS011;7593;49.006;8.372;2023-05-10T14:16:02;1.30;;;1.20;;
14994;SDS011;7593;49.006;8.372;2023-05-10T14:18:29;1.92;;;1.60;;
14994;SDS011;7593;49.006;8.372;2023-05-10T14:20:56;2.15;;;1.58;;
14994;SDS011;7593;49.006;8.372;2023-05-10T14:23:22;1.40;;;1.10;;
14994;SDS011;7593;49.006;8.372;2023-05-10T14:25:50;1.45;;;1.30;;
14994;SDS011;7593;49.006;8.372;2023-05-10T14:28:19;5.43;;;1.23;;
14994;SDS011;7593;49.006;8.372;2023-05-10T14:30:47;2.67;;;1.15;;
14994;SDS011;7593;49.006;8.372;2023-05-10T14:33:14;4.00;;;1.13;;
14994;SDS011;7593;49.006;8.372;2023-05-10T14:35:41;3.67;;;1.30;;
14994;SDS011;7593;49.006;8.372;2023-05-10T14:38:08;1.90;;;1.30;;
14994;SDS011;7593;49.006;8.372;2023-05-10T14:40:35;1.92;;;1.20;;
14994;SDS011;7593;49.006;8.372;2023-05-10T14:43:02;2.45;;;1.00;;
14994;SDS011;7593;49.006;8.372;2023-05-10T14:45:30;1.13;;;0.80;;
14994;SDS011;7593;49.006;8.372;2023-05-10T14:47:57;1.08;;;0.85;;
14994;SDS011;7593;49.006;8.372;2023-05-10T14:50:24;0.85;;;0.70;;
14994;SDS011;7593;49.006;8.372;2023-05-10T14:52:51;1.25;;;0.90;;
14994;SDS011;7593;49.006;8.372;2023-05-10T14:55:18;1.90;;;0.93;;
14994;SDS011;7593;49.006;8.372;2023-05-10T14:57:45;1.95;;;0.85;;
14994;SDS011;7593;49.006;8.372;2023-05-10T15:00:14;3.05;;;1.10;;
14994;SDS011;7593;49.006;8.372;2023-05-10T15:02:43;1.55;;;1.00;;
14994;SDS011;7593;49.006;8.372;2023-05-10T15:05:10;1.95;;;1.17;;
14994;SDS011;7593;49.006;8.372;2023-05-10T15:07:36;1.02;;;0.93;;
14994;SDS011;7593;49.006;8.372;2023-05-10T15:10:04;1.40;;;0.90;;
14994;SDS011;7593;49.006;8.372;2023-05-10T15:12:31;1.05;;;0.93;;
14994;SDS011;7593;49.006;8.372;2023-05-10T15:14:58;1.90;;;0.90;;
14994;SDS011;7593;49.006;8.372;2023-05-10T15:17:25;1.58;;;0.90;;
14994;SDS011;7593;49.006;8.372;2023-05-10T15:19:53;1.30;;;1.00;;